sensor_id;sensor_type;location;lat;lon;timestamp;pressure;altitude;pressure_sealevel;temperature;humidity
21980;BME280;11154;48.558;9.234;2023-03-14T00:00:45;96009.34;;;13.98;98.08
21980;BME280;11154;48.558;9.234;2023-03-14T00:02:51;96020.59;;;14.00;97.60
21980;BME280;11154;48.558;9.234;2023-03-14T00:04:55;96028.19;;;14.03;96.99
21980;BME280;11154;48.558;9.234;2023-03-14T00:06:57;96022.38;;;14.06;96.47
21980;BME280;11154;48.558;9.234;2023-03-14T00:08:59;96004.94;;;14.10;96.45
21980;BME280;11154;48.558;9.234;2023-03-14T00:11:04;95987.81;;;14.11;96.06
21980;BME280;11154;48.558;9.234;2023-03-14T00:13:06;95959.03;;;14.13;96.17
21980;BME280;11154;48.558;9.234;2023-03-14T00:15:08;95934.53;;;14.16;94.92
21980;BME280;11154;48.558;9.234;2023-03-14T00:17:10;95928.16;;;14.17;93.93
21980;BME280;11154;48.558;9.234;2023-03-14T00:19:14;95913.59;;;14.13;93.00
21980;BME280;11154;48.558;9.234;2023-03-14T00:21:17;95908.06;;;14.08;93.46
21980;BME280;11154;48.558;9.234;2023-03-14T00:23:19;95895.75;;;14.07;93.32
21980;BME280;11154;48.558;9.234;2023-03-14T00:25:20;95906.88;;;14.04;93.11
21980;BME280;11154;48.558;9.234;2023-03-14T00:27:22;95887.34;;;14.04;92.64
21980;BME280;11154;48.558;9.234;2023-03-14T00:29:24;95879.09;;;14.05;92.30
21980;BME280;11154;48.558;9.234;2023-03-14T00:31:25;95901.91;;;14.08;92.55
21980;BME280;11154;48.558;9.234;2023-03-14T00:33:27;95900.28;;;14.07;92.70
21980;BME280;11154;48.558;9.234;2023-03-14T00:35:28;95918.38;;;14.05;93.18
21980;BME280;11154;48.558;9.234;2023-03-14T00:37:31;95915.94;;;14.03;93.51
21980;BME280;11154;48.558;9.234;2023-03-14T00:39:33;95918.00;;;14.01;93.69
21980;BME280;11154;48.558;9.234;2023-03-14T00:41:35;95908.97;;;14.02;93.48
21980;BME280;11154;48.558;9.234;2023-03-14T00:43:36;95901.75;;;14.03;93.37
21980;BME280;11154;48.558;9.234;2023-03-14T00:45:38;95914.72;;;13.99;93.17
21980;BME280;11154;48.558;9.234;2023-03-14T00:47:40;95930.19;;;13.97;93.21
21980;BME280;11154;48.558;9.234;2023-03-14T00:49:45;95932.88;;;13.97;93.67
21980;BME280;11154;48.558;9.234;2023-03-14T00:51:47;95934.28;;;14.00;93.76
21980;BME280;11154;48.558;9.234;2023-03-14T00:53:50;95936.34;;;13.98;92.66
21980;BME280;11154;48.558;9.234;2023-03-14T00:55:51;95941.25;;;14.01;91.97
21980;BME280;11154;48.558;9.234;2023-03-14T00:57:53;95940.00;;;14.03;91.16
21980;BME280;11154;48.558;9.234;2023-03-14T00:59:55;95946.16;;;14.04;91.86
21980;BME280;11154;48.558;9.234;2023-03-14T01:01:57;95946.38;;;14.02;92.38
21980;BME280;11154;48.558;9.234;2023-03-14T01:03:58;95950.69;;;14.03;92.77
21980;BME280;11154;48.558;9.234;2023-03-14T01:06:10;95951.72;;;14.02;92.30
21980;BME280;11154;48.558;9.234;2023-03-14T01:08:12;95944.72;;;14.01;92.55
21980;BME280;11154;48.558;9.234;2023-03-14T01:10:15;95939.38;;;14.01;92.34
21980;BME280;11154;48.558;9.234;2023-03-14T01:12:16;95941.44;;;13.99;92.25
21980;BME280;11154;48.558;9.234;2023-03-14T01:14:18;95950.53;;;13.98;92.17
21980;BME280;11154;48.558;9.234;2023-03-14T01:16:21;95944.59;;;13.96;92.53
21980;BME280;11154;48.558;9.234;2023-03-14T01:18:23;95945.38;;;13.97;92.22
21980;BME280;11154;48.558;9.234;2023-03-14T01:20:25;95932.88;;;13.97;92.08
21980;BME280;11154;48.558;9.234;2023-03-14T01:22:27;95921.34;;;13.97;91.93
21980;BME280;11154;48.558;9.234;2023-03-14T01:24:29;95912.28;;;13.98;91.83
21980;BME280;11154;48.558;9.234;2023-03-14T01:26:34;95902.44;;;13.98;91.86
21980;BME280;11154;48.558;9.234;2023-03-14T01:28:36;95901.59;;;13.98;91.72
21980;BME280;11154;48.558;9.234;2023-03-14T01:30:38;95906.13;;;13.97;91.25
21980;BME280;11154;48.558;9.234;2023-03-14T01:32:39;95906.56;;;13.94;91.36
21980;BME280;11154;48.558;9.234;2023-03-14T01:34:41;95910.28;;;13.93;91.30
21980;BME280;11154;48.558;9.234;2023-03-14T01:36:43;95905.75;;;13.94;92.06
21980;BME280;11154;48.558;9.234;2023-03-14T01:38:45;95901.69;;;13.91;92.12
21980;BME280;11154;48.558;9.234;2023-03-14T01:40:46;95899.66;;;13.87;92.44
21980;BME280;11154;48.558;9.234;2023-03-14T01:42:55;95901.50;;;13.86;92.20
21980;BME280;11154;48.558;9.234;2023-03-14T01:44:59;95890.44;;;13.83;92.06
21980;BME280;11154;48.558;9.234;2023-03-14T01:47:01;95896.00;;;13.81;92.95
21980;BME280;11154;48.558;9.234;2023-03-14T01:49:11;95890.28;;;13.78;93.44
21980;BME280;11154;48.558;9.234;2023-03-14T01:51:19;95888.09;;;13.75;94.64
21980;BME280;11154;48.558;9.234;2023-03-14T01:53:22;95881.09;;;13.74;94.28
21980;BME280;11154;48.558;9.234;2023-03-14T01:55:25;95873.88;;;13.74;94.04
21980;BME280;11154;48.558;9.234;2023-03-14T01:57:30;95866.91;;;13.73;93.91
21980;BME280;11154;48.558;9.234;2023-03-14T01:59:35;95866.09;;;13.73;93.39
21980;BME280;11154;48.558;9.234;2023-03-14T02:01:40;95821.97;;;12.73;97.08
21980;BME280;11154;48.558;9.234;2023-03-14T02:03:46;95817.53;;;12.30;100.00
21980;BME280;11154;48.558;9.234;2023-03-14T02:05:49;95814.34;;;12.09;100.00
21980;BME280;11154;48.558;9.234;2023-03-14T02:07:54;95823.03;;;11.98;100.00
21980;BME280;11154;48.558;9.234;2023-03-14T02:09:55;95828.16;;;11.93;100.00
21980;BME280;11154;48.558;9.234;2023-03-14T02:11:58;95826.34;;;11.87;100.00
21980;BME280;11154;48.558;9.234;2023-03-14T02:14:01;95821.44;;;11.84;100.00
21980;BME280;11154;48.558;9.234;2023-03-14T02:16:06;95827.38;;;11.79;100.00
21980;BME280;11154;48.558;9.234;2023-03-14T02:18:08;95820.03;;;11.75;100.00
21980;BME280;11154;48.558;9.234;2023-03-14T02:20:19;95825.16;;;11.76;100.00
21980;BME280;11154;48.558;9.234;2023-03-14T02:22:25;95808.38;;;11.76;100.00
21980;BME280;11154;48.558;9.234;2023-03-14T02:24:34;95804.25;;;11.80;100.00
21980;BME280;11154;48.558;9.234;2023-03-14T02:26:42;95796.25;;;11.80;100.00
21980;BME280;11154;48.558;9.234;2023-03-14T02:28:46;95788.91;;;11.75;100.00
21980;BME280;11154;48.558;9.234;2023-03-14T02:30:48;95787.88;;;11.76;100.00
21980;BME280;11154;48.558;9.234;2023-03-14T02:32:52;95781.75;;;11.76;100.00
21980;BME280;11154;48.558;9.234;2023-03-14T02:34:57;95790.72;;;11.81;100.00
21980;BME280;11154;48.558;9.234;2023-03-14T02:37:00;95799.94;;;11.79;100.00
21980;BME280;11154;48.558;9.234;2023-03-14T02:39:08;95803.41;;;11.79;100.00
21980;BME280;11154;48.558;9.234;2023-03-14T02:41:12;95802.19;;;11.82;100.00
21980;BME280;11154;48.558;9.234;2023-03-14T02:43:13;95789.47;;;11.84;100.00
21980;BME280;11154;48.558;9.234;2023-03-14T02:45:35;95797.47;;;11.84;100.00
21980;BME280;11154;48.558;9.234;2023-03-14T02:47:39;95786.63;;;11.85;100.00
21980;BME280;11154;48.558;9.234;2023-03-14T02:49:44;95783.31;;;11.90;100.00
21980;BME280;11154;48.558;9.234;2023-03-14T02:51:46;95764.88;;;11.88;100.00
21980;BME280;11154;48.558;9.234;2023-03-14T02:53:47;95766.75;;;11.88;100.00
21980;BME280;11154;48.558;9.234;2023-03-14T02:55:50;95763.25;;;11.87;100.00
21980;BME280;11154;48.558;9.234;2023-03-14T02:57:52;95755.22;;;11.94;100.00
21980;BME280;11154;48.558;9.234;2023-03-14T02:59:53;95749.47;;;11.97;100.00
21980;BME280;11154;48.558;9.234;2023-03-14T03:01:56;95761.38;;;11.94;100.00
21980;BME280;11154;48.558;9.234;2023-03-14T03:04:00;95763.63;;;11.91;100.00
21980;BME280;11154;48.558;9.234;2023-03-14T03:06:02;95768.16;;;11.90;100.00
21980;BME280;11154;48.558;9.234;2023-03-14T03:08:04;95759.16;;;11.91;100.00
21980;BME280;11154;48.558;9.234;2023-03-14T03:10:07;95768.97;;;11.91;100.00
21980;BME280;11154;48.558;9.234;2023-03-14T03:12:09;95755.03;;;11.89;100.00
21980;BME280;11154;48.558;9.234;2023-03-14T03:14:10;95748.09;;;11.88;100.00
21980;BME280;11154;48.558;9.234;2023-03-14T03:16:12;95745.63;;;11.86;100.00
21980;BME280;11154;48.558;9.234;2023-03-14T03:18:16;95738.06;;;11.83;100.00
21980;BME280;11154;48.558;9.234;2023-03-14T03:20:18;95735.63;;;11.82;100.00
21980;BME280;11154;48.558;9.234;2023-03-14T03:22:20;95741.97;;;11.81;100.00
21980;BME280;11154;48.558;9.234;2023-03-14T03:24:21;95732.13;;;11.81;100.00
21980;BME280;11154;48.558;9.234;2023-03-14T03:26:23;95731.91;;;11.83;100.00
21980;BME280;11154;48.558;9.234;2023-03-14T03:28:24;95719.25;;;11.78;100.00
21980;BME280;11154;48.558;9.234;2023-03-14T03:30:26;95720.28;;;11.77;100.00
21980;BME280;11154;48.558;9.234;2023-03-14T03:32:28;95724.19;;;11.75;100.00
21980;BME280;11154;48.558;9.234;2023-03-14T03:34:31;95718.03;;;11.74;100.00
21980;BME280;11154;48.558;9.234;2023-03-14T03:36:33;95709.03;;;11.75;100.00
21980;BME280;11154;48.558;9.234;2023-03-14T03:38:34;95700.66;;;11.72;99.99
21980;BME280;11154;48.558;9.234;2023-03-14T03:40:36;95705.41;;;11.63;100.00
21980;BME280;11154;48.558;9.234;2023-03-14T03:42:38;95711.16;;;11.48;98.19
21980;BME280;11154;48.558;9.234;2023-03-14T03:44:39;95707.06;;;11.45;97.91
21980;BME280;11154;48.558;9.234;2023-03-14T03:46:41;95691.94;;;11.46;99.67
21980;BME280;11154;48.558;9.234;2023-03-14T03:48:43;95691.38;;;11.37;98.03
21980;BME280;11154;48.558;9.234;2023-03-14T03:50:46;95697.09;;;11.41;97.99
21980;BME280;11154;48.558;9.234;2023-03-14T03:52:48;95684.81;;;11.40;97.22
21980;BME280;11154;48.558;9.234;2023-03-14T03:54:49;95679.50;;;11.33;96.04
21980;BME280;11154;48.558;9.234;2023-03-14T03:56:51;95694.63;;;11.39;98.68
21980;BME280;11154;48.558;9.234;2023-03-14T03:58:53;95697.09;;;11.34;97.49
21980;BME280;11154;48.558;9.234;2023-03-14T04:00:54;95731.34;;;11.74;98.14
21980;BME280;11154;48.558;9.234;2023-03-14T04:02:56;95724.16;;;12.19;93.52
21980;BME280;11154;48.558;9.234;2023-03-14T04:04:58;95726.63;;;12.44;91.09
21980;BME280;11154;48.558;9.234;2023-03-14T04:07:01;95738.59;;;12.60;88.53
21980;BME280;11154;48.558;9.234;2023-03-14T04:09:02;95734.34;;;12.77;88.25
21980;BME280;11154;48.558;9.234;2023-03-14T04:11:05;95733.00;;;12.92;87.73
21980;BME280;11154;48.558;9.234;2023-03-14T04:13:06;95730.06;;;13.00;85.63
21980;BME280;11154;48.558;9.234;2023-03-14T04:15:09;95726.47;;;13.12;86.54
21980;BME280;11154;48.558;9.234;2023-03-14T04:17:11;95728.56;;;13.28;90.04
21980;BME280;11154;48.558;9.234;2023-03-14T04:19:12;95726.25;;;13.32;86.71
21980;BME280;11154;48.558;9.234;2023-03-14T04:21:14;95733.66;;;13.30;83.70
21980;BME280;11154;48.558;9.234;2023-03-14T04:23:17;95735.75;;;13.28;80.69
21980;BME280;11154;48.558;9.234;2023-03-14T04:25:19;95736.69;;;13.33;83.08
21980;BME280;11154;48.558;9.234;2023-03-14T04:27:21;95734.63;;;13.35;82.56
21980;BME280;11154;48.558;9.234;2023-03-14T04:29:22;95732.34;;;13.39;81.54
21980;BME280;11154;48.558;9.234;2023-03-14T04:31:24;95714.81;;;13.43;81.79
21980;BME280;11154;48.558;9.234;2023-03-14T04:33:26;95706.97;;;13.48;81.23
21980;BME280;11154;48.558;9.234;2023-03-14T04:35:30;95703.84;;;13.51;79.76
21980;BME280;11154;48.558;9.234;2023-03-14T04:37:31;95698.66;;;13.56;78.83
21980;BME280;11154;48.558;9.234;2023-03-14T04:39:34;95692.03;;;13.58;78.70
21980;BME280;11154;48.558;9.234;2023-03-14T04:41:36;95676.38;;;13.62;78.04
21980;BME280;11154;48.558;9.234;2023-03-14T04:43:37;95682.09;;;13.65;77.37
21980;BME280;11154;48.558;9.234;2023-03-14T04:45:41;95672.03;;;13.67;76.58
21980;BME280;11154;48.558;9.234;2023-03-14T04:47:43;95671.78;;;13.68;75.83
21980;BME280;11154;48.558;9.234;2023-03-14T04:49:44;95666.44;;;13.68;75.53
21980;BME280;11154;48.558;9.234;2023-03-14T04:51:46;95666.44;;;13.68;74.39
21980;BME280;11154;48.558;9.234;2023-03-14T04:53:48;95657.38;;;13.69;74.22
21980;BME280;11154;48.558;9.234;2023-03-14T04:55:52;95639.50;;;13.70;73.16
21980;BME280;11154;48.558;9.234;2023-03-14T04:57:53;95649.50;;;13.74;72.45
21980;BME280;11154;48.558;9.234;2023-03-14T04:59:55;95648.94;;;13.72;71.83
21980;BME280;11154;48.558;9.234;2023-03-14T05:01:57;95643.38;;;13.74;71.35
21980;BME280;11154;48.558;9.234;2023-03-14T05:03:58;95640.47;;;13.75;70.82
21980;BME280;11154;48.558;9.234;2023-03-14T05:06:00;95639.44;;;13.76;71.04
21980;BME280;11154;48.558;9.234;2023-03-14T05:08:02;95641.06;;;13.77;71.16
21980;BME280;11154;48.558;9.234;2023-03-14T05:10:04;95641.72;;;13.73;71.18
21980;BME280;11154;48.558;9.234;2023-03-14T05:12:07;95632.31;;;13.70;70.83
21980;BME280;11154;48.558;9.234;2023-03-14T05:14:09;95636.63;;;13.71;70.90
21980;BME280;11154;48.558;9.234;2023-03-14T05:16:11;95622.44;;;13.71;70.96
21980;BME280;11154;48.558;9.234;2023-03-14T05:18:12;95612.00;;;13.69;70.92
21980;BME280;11154;48.558;9.234;2023-03-14T05:20:15;95610.34;;;13.68;70.41
21980;BME280;11154;48.558;9.234;2023-03-14T05:22:16;95607.69;;;13.68;70.47
21980;BME280;11154;48.558;9.234;2023-03-14T05:24:18;95617.19;;;13.65;70.48
21980;BME280;11154;48.558;9.234;2023-03-14T05:26:20;95606.03;;;13.56;68.21
21980;BME280;11154;48.558;9.234;2023-03-14T05:28:23;95612.41;;;13.55;69.46
21980;BME280;11154;48.558;9.234;2023-03-14T05:30:24;95601.34;;;13.52;68.79
21980;BME280;11154;48.558;9.234;2023-03-14T05:32:28;95606.69;;;13.52;69.35
21980;BME280;11154;48.558;9.234;2023-03-14T05:34:29;95606.09;;;13.50;68.78
21980;BME280;11154;48.558;9.234;2023-03-14T05:36:31;95606.69;;;13.52;69.98
21980;BME280;11154;48.558;9.234;2023-03-14T05:38:33;95611.44;;;13.50;68.61
21980;BME280;11154;48.558;9.234;2023-03-14T05:40:35;95599.97;;;13.49;69.92
21980;BME280;11154;48.558;9.234;2023-03-14T05:42:36;95599.13;;;13.49;70.33
21980;BME280;11154;48.558;9.234;2023-03-14T05:44:40;95598.56;;;13.47;68.84
21980;BME280;11154;48.558;9.234;2023-03-14T05:46:41;95596.47;;;13.49;68.74
21980;BME280;11154;48.558;9.234;2023-03-14T05:48:43;95583.25;;;13.54;68.13
21980;BME280;11154;48.558;9.234;2023-03-14T05:50:45;95584.88;;;13.55;68.21
21980;BME280;11154;48.558;9.234;2023-03-14T05:52:47;95579.53;;;13.55;67.71
21980;BME280;11154;48.558;9.234;2023-03-14T05:54:48;95577.94;;;13.54;67.92
21980;BME280;11154;48.558;9.234;2023-03-14T05:56:50;95590.22;;;13.55;67.93
21980;BME280;11154;48.558;9.234;2023-03-14T05:58:52;95577.47;;;13.57;67.98
21980;BME280;11154;48.558;9.234;2023-03-14T06:00:55;95574.78;;;13.57;67.06
21980;BME280;11154;48.558;9.234;2023-03-14T06:02:57;95575.38;;;13.59;69.78
21980;BME280;11154;48.558;9.234;2023-03-14T06:04:58;95568.66;;;13.68;75.26
21980;BME280;11154;48.558;9.234;2023-03-14T06:07:00;95568.66;;;13.68;71.42
21980;BME280;11154;48.558;9.234;2023-03-14T06:09:02;95578.19;;;13.64;68.87
21980;BME280;11154;48.558;9.234;2023-03-14T06:11:04;95567.56;;;13.57;68.33
21980;BME280;11154;48.558;9.234;2023-03-14T06:13:05;95571.06;;;13.58;68.66
21980;BME280;11154;48.558;9.234;2023-03-14T06:15:08;95578.06;;;13.59;68.72
21980;BME280;11154;48.558;9.234;2023-03-14T06:17:11;95584.88;;;13.55;69.17
21980;BME280;11154;48.558;9.234;2023-03-14T06:19:12;95601.13;;;13.53;68.98
21980;BME280;11154;48.558;9.234;2023-03-14T06:21:14;95593.47;;;13.57;69.43
21980;BME280;11154;48.558;9.234;2023-03-14T06:23:16;95605.44;;;13.54;68.65
21980;BME280;11154;48.558;9.234;2023-03-14T06:25:18;95598.81;;;13.57;69.64
21980;BME280;11154;48.558;9.234;2023-03-14T06:27:20;95601.25;;;13.58;69.89
21980;BME280;11154;48.558;9.234;2023-03-14T06:29:21;95593.03;;;13.60;69.87
21980;BME280;11154;48.558;9.234;2023-03-14T06:31:23;95597.91;;;13.63;70.48
21980;BME280;11154;48.558;9.234;2023-03-14T06:33:26;95594.19;;;13.64;71.32
21980;BME280;11154;48.558;9.234;2023-03-14T06:35:28;95600.16;;;13.66;71.72
21980;BME280;11154;48.558;9.234;2023-03-14T06:37:30;95603.38;;;13.68;71.67
21980;BME280;11154;48.558;9.234;2023-03-14T06:39:31;95607.69;;;13.68;71.89
21980;BME280;11154;48.558;9.234;2023-03-14T06:41:33;95600.50;;;13.69;72.37
21980;BME280;11154;48.558;9.234;2023-03-14T06:43:35;95605.00;;;13.68;72.32
21980;BME280;11154;48.558;9.234;2023-03-14T06:45:36;95598.03;;;13.68;72.20
21980;BME280;11154;48.558;9.234;2023-03-14T06:47:38;95592.94;;;13.66;72.63
21980;BME280;11154;48.558;9.234;2023-03-14T06:49:41;95594.56;;;13.67;72.54
21980;BME280;11154;48.558;9.234;2023-03-14T06:51:42;95590.03;;;13.68;72.15
21980;BME280;11154;48.558;9.234;2023-03-14T06:53:44;95589.22;;;13.67;71.75
21980;BME280;11154;48.558;9.234;2023-03-14T06:55:46;95584.69;;;13.68;71.56
21980;BME280;11154;48.558;9.234;2023-03-14T06:57:47;95590.84;;;13.68;71.33
21980;BME280;11154;48.558;9.234;2023-03-14T06:59:49;95595.38;;;13.68;71.18
21980;BME280;11154;48.558;9.234;2023-03-14T07:01:50;95591.97;;;13.61;70.27
21980;BME280;11154;48.558;9.234;2023-03-14T07:03:52;95600.34;;;13.64;69.73
21980;BME280;11154;48.558;9.234;2023-03-14T07:05:55;95602.81;;;13.66;70.51
21980;BME280;11154;48.558;9.234;2023-03-14T07:07:57;95613.03;;;13.68;71.64
21980;BME280;11154;48.558;9.234;2023-03-14T07:09:58;95613.03;;;13.68;71.79
21980;BME280;11154;48.558;9.234;2023-03-14T07:12:00;95624.53;;;13.69;70.79
21980;BME280;11154;48.558;9.234;2023-03-14T07:14:02;95628.13;;;13.74;70.51
21980;BME280;11154;48.558;9.234;2023-03-14T07:16:04;95631.66;;;13.75;68.32
21980;BME280;11154;48.558;9.234;2023-03-14T07:18:06;95630.31;;;13.95;69.80
21980;BME280;11154;48.558;9.234;2023-03-14T07:20:09;95635.28;;;14.21;68.72
21980;BME280;11154;48.558;9.234;2023-03-14T07:22:12;95632.09;;;14.42;69.70
21980;BME280;11154;48.558;9.234;2023-03-14T07:24:14;95636.84;;;14.51;68.55
21980;BME280;11154;48.558;9.234;2023-03-14T07:26:15;95637.09;;;14.61;68.28
21980;BME280;11154;48.558;9.234;2023-03-14T07:28:17;95642.66;;;14.60;68.37
21980;BME280;11154;48.558;9.234;2023-03-14T07:30:19;95638.72;;;14.62;68.64
21980;BME280;11154;48.558;9.234;2023-03-14T07:32:20;95644.41;;;14.66;68.43
21980;BME280;11154;48.558;9.234;2023-03-14T07:34:22;95638.03;;;14.67;68.19
21980;BME280;11154;48.558;9.234;2023-03-14T07:36:24;95636.25;;;14.72;67.66
21980;BME280;11154;48.558;9.234;2023-03-14T07:38:27;95642.09;;;14.81;67.33
21980;BME280;11154;48.558;9.234;2023-03-14T07:40:28;95638.50;;;14.87;67.20
21980;BME280;11154;48.558;9.234;2023-03-14T07:42:30;95653.81;;;14.91;66.83
21980;BME280;11154;48.558;9.234;2023-03-14T07:44:32;95640.56;;;14.85;66.56
21980;BME280;11154;48.558;9.234;2023-03-14T07:46:34;95641.97;;;14.87;68.02
21980;BME280;11154;48.558;9.234;2023-03-14T07:48:35;95643.25;;;14.85;69.07
21980;BME280;11154;48.558;9.234;2023-03-14T07:50:37;95647.78;;;14.84;68.75
21980;BME280;11154;48.558;9.234;2023-03-14T07:52:38;95654.56;;;14.87;67.05
21980;BME280;11154;48.558;9.234;2023-03-14T07:54:41;95648.97;;;14.88;66.65
21980;BME280;11154;48.558;9.234;2023-03-14T07:56:43;95651.88;;;14.87;66.73
21980;BME280;11154;48.558;9.234;2023-03-14T07:58:45;95658.38;;;14.91;67.03
21980;BME280;11154;48.558;9.234;2023-03-14T08:00:46;95654.41;;;14.93;67.63
21980;BME280;11154;48.558;9.234;2023-03-14T08:02:48;95653.13;;;14.96;65.73
21980;BME280;11154;48.558;9.234;2023-03-14T08:04:50;95655.00;;;14.95;65.83
21980;BME280;11154;48.558;9.234;2023-03-14T08:06:51;95654.19;;;14.95;65.93
21980;BME280;11154;48.558;9.234;2023-03-14T08:08:54;95659.06;;;14.98;67.04
21980;BME280;11154;48.558;9.234;2023-03-14T08:11:02;95655.56;;;14.97;66.33
21980;BME280;11154;48.558;9.234;2023-03-14T08:13:04;95657.00;;;15.00;66.60
21980;BME280;11154;48.558;9.234;2023-03-14T08:15:06;95660.81;;;15.04;65.25
21980;BME280;11154;48.558;9.234;2023-03-14T08:17:08;95655.81;;;15.07;65.07
21980;BME280;11154;48.558;9.234;2023-03-14T08:19:09;95658.94;;;15.04;65.01
21980;BME280;11154;48.558;9.234;2023-03-14T08:21:11;95648.22;;;15.04;65.44
21980;BME280;11154;48.558;9.234;2023-03-14T08:23:12;95652.31;;;15.07;65.53
21980;BME280;11154;48.558;9.234;2023-03-14T08:25:15;95644.41;;;15.12;65.03
21980;BME280;11154;48.558;9.234;2023-03-14T08:27:18;95651.38;;;15.13;63.75
21980;BME280;11154;48.558;9.234;2023-03-14T08:29:20;95662.66;;;15.14;64.32
21980;BME280;11154;48.558;9.234;2023-03-14T08:31:22;95655.22;;;15.16;64.62
21980;BME280;11154;48.558;9.234;2023-03-14T08:33:23;95656.25;;;15.15;64.79
21980;BME280;11154;48.558;9.234;2023-03-14T08:35:26;95651.94;;;15.14;64.51
21980;BME280;11154;48.558;9.234;2023-03-14T08:37:27;95652.28;;;15.18;64.19
21980;BME280;11154;48.558;9.234;2023-03-14T08:39:29;95658.69;;;15.17;64.36
21980;BME280;11154;48.558;9.234;2023-03-14T08:41:31;95661.16;;;15.18;65.03
21980;BME280;11154;48.558;9.234;2023-03-14T08:43:34;95658.25;;;15.20;65.03
21980;BME280;11154;48.558;9.234;2023-03-14T08:45:36;95657.34;;;15.26;64.40
21980;BME280;11154;48.558;9.234;2023-03-14T08:47:38;95655.25;;;15.28;65.06
21980;BME280;11154;48.558;9.234;2023-03-14T08:49:40;95645.44;;;15.33;63.42
21980;BME280;11154;48.558;9.234;2023-03-14T08:51:41;95649.28;;;15.37;63.19
21980;BME280;11154;48.558;9.234;2023-03-14T08:53:43;95651.00;;;15.43;63.13
21980;BME280;11154;48.558;9.234;2023-03-14T08:55:45;95659.59;;;15.45;62.76
21980;BME280;11154;48.558;9.234;2023-03-14T08:57:46;95656.56;;;15.53;63.95
21980;BME280;11154;48.558;9.234;2023-03-14T08:59:49;95658.28;;;15.59;62.51
21980;BME280;11154;48.558;9.234;2023-03-14T09:01:51;95648.53;;;15.53;63.09
21980;BME280;11154;48.558;9.234;2023-03-14T09:03:54;95658.78;;;15.56;64.10
21980;BME280;11154;48.558;9.234;2023-03-14T09:05:55;95656.09;;;15.56;63.99
21980;BME280;11154;48.558;9.234;2023-03-14T09:07:57;95657.50;;;15.59;64.67
21980;BME280;11154;48.558;9.234;2023-03-14T09:09:59;95656.28;;;15.66;65.24
21980;BME280;11154;48.558;9.234;2023-03-14T09:12:00;95669.56;;;15.73;66.04
21980;BME280;11154;48.558;9.234;2023-03-14T09:14:02;95664.06;;;15.79;66.60
21980;BME280;11154;48.558;9.234;2023-03-14T09:16:06;95656.25;;;15.78;62.39
21980;BME280;11154;48.558;9.234;2023-03-14T09:18:08;95666.75;;;15.68;62.26
21980;BME280;11154;48.558;9.234;2023-03-14T09:20:10;95665.97;;;15.67;63.94
21980;BME280;11154;48.558;9.234;2023-03-14T09:22:14;95681.88;;;15.74;63.05
21980;BME280;11154;48.558;9.234;2023-03-14T09:24:16;95677.28;;;15.69;63.76
21980;BME280;11154;48.558;9.234;2023-03-14T09:26:18;95682.97;;;15.73;65.92
21980;BME280;11154;48.558;9.234;2023-03-14T09:28:19;95693.00;;;15.66;67.94
21980;BME280;11154;48.558;9.234;2023-03-14T09:30:21;95686.72;;;15.60;69.96
21980;BME280;11154;48.558;9.234;2023-03-14T09:32:24;95696.91;;;15.47;72.81
21980;BME280;11154;48.558;9.234;2023-03-14T09:34:26;95699.56;;;15.35;75.07
21980;BME280;11154;48.558;9.234;2023-03-14T09:36:28;95697.25;;;15.27;74.64
21980;BME280;11154;48.558;9.234;2023-03-14T09:38:30;95701.88;;;15.20;74.95
21980;BME280;11154;48.558;9.234;2023-03-14T09:40:34;95714.13;;;15.16;75.42
21980;BME280;11154;48.558;9.234;2023-03-14T09:42:37;95720.50;;;15.15;76.45
21980;BME280;11154;48.558;9.234;2023-03-14T09:44:47;95711.44;;;15.16;75.89
21980;BME280;11154;48.558;9.234;2023-03-14T09:46:53;95724.22;;;15.14;78.01
21980;BME280;11154;48.558;9.234;2023-03-14T09:48:57;95725.75;;;15.11;78.69
21980;BME280;11154;48.558;9.234;2023-03-14T09:51:01;95726.81;;;15.10;77.10
21980;BME280;11154;48.558;9.234;2023-03-14T09:53:09;95724.38;;;15.08;77.06
21980;BME280;11154;48.558;9.234;2023-03-14T09:55:16;95721.09;;;15.06;77.64
21980;BME280;11154;48.558;9.234;2023-03-14T09:57:21;95724.81;;;15.05;77.21
21980;BME280;11154;48.558;9.234;2023-03-14T09:59:22;95735.16;;;15.02;73.68
21980;BME280;11154;48.558;9.234;2023-03-14T10:01:26;95734.97;;;15.03;73.96
21980;BME280;11154;48.558;9.234;2023-03-14T10:03:31;95731.00;;;15.06;72.78
21980;BME280;11154;48.558;9.234;2023-03-14T10:05:35;95728.88;;;15.08;73.31
21980;BME280;11154;48.558;9.234;2023-03-14T10:07:37;95726.94;;;15.03;72.80
21980;BME280;11154;48.558;9.234;2023-03-14T10:09:39;95733.88;;;15.04;72.78
21980;BME280;11154;48.558;9.234;2023-03-14T10:11:41;95725.66;;;15.06;71.67
21980;BME280;11154;48.558;9.234;2023-03-14T10:14:02;95731.00;;;15.06;72.25
21980;BME280;11154;48.558;9.234;2023-03-14T10:16:05;95724.47;;;15.02;72.44
21980;BME280;11154;48.558;9.234;2023-03-14T10:18:11;95729.00;;;15.01;73.45
21980;BME280;11154;48.558;9.234;2023-03-14T10:20:28;95717.13;;;15.09;73.01
21980;BME280;11154;48.558;9.234;2023-03-14T10:22:34;95719.47;;;15.16;73.67
21980;BME280;11154;48.558;9.234;2023-03-14T10:24:36;95711.53;;;15.21;73.42
21980;BME280;11154;48.558;9.234;2023-03-14T10:26:38;95711.47;;;15.28;72.93
21980;BME280;11154;48.558;9.234;2023-03-14T10:28:44;95708.31;;;15.31;72.98
21980;BME280;11154;48.558;9.234;2023-03-14T10:30:46;95704.13;;;15.35;72.15
21980;BME280;11154;48.558;9.234;2023-03-14T10:32:48;95704.44;;;15.15;72.02
21980;BME280;11154;48.558;9.234;2023-03-14T10:35:05;95685.50;;;15.06;72.68
21980;BME280;11154;48.558;9.234;2023-03-14T10:37:17;95700.03;;;14.98;72.87
21980;BME280;11154;48.558;9.234;2023-03-14T10:39:26;95691.66;;;14.95;71.46
21980;BME280;11154;48.558;9.234;2023-03-14T10:41:30;95697.47;;;14.92;71.18
21980;BME280;11154;48.558;9.234;2023-03-14T10:43:35;95690.50;;;14.91;71.28
21980;BME280;11154;48.558;9.234;2023-03-14T10:45:41;95699.91;;;14.93;71.30
21980;BME280;11154;48.558;9.234;2023-03-14T10:47:48;95694.31;;;14.95;70.96